Time,TemperatureF,DewpointF,PressureIn,WindDirection,WindDirectionDegrees,WindSpeedMPH,WindSpeedGustMPH,Humidity,HourlyPrecipIn,Conditions,Clouds,dailyrainin,SoftwareType,DateUTC
2013-08-07 00:00:00,79.0,-99.9,30.08,SE,130,12.0,13.0,-999,-99.99,,,-99.99,,2013-08-07 04:00:00,
2013-08-07 00:33:00,79.0,-99.9,30.08,SE,130,12.0,13.0,-999,-99.99,,,-99.99,,2013-08-07 04:33:00,
2013-08-07 00:43:00,79.0,-99.9,30.08,SE,130,12.0,13.0,-999,-99.99,,,-99.99,,2013-08-07 04:43:00,
2013-08-07 00:52:00,79.0,-99.9,30.08,SE,130,12.0,13.0,-999,-99.99,,,-99.99,,2013-08-07 04:52:00,
2013-08-07 02:00:00,79.0,-99.9,30.06,SE,130,9.0,10.0,-999,-99.99,,,-99.99,,2013-08-07 06:00:00,
2013-08-07 02:32:00,79.0,-99.9,30.06,SE,130,9.0,10.0,-999,-99.99,,,-99.99,,2013-08-07 06:32:00,
2013-08-07 02:43:00,79.0,-99.9,30.06,SE,130,9.0,10.0,-999,-99.99,,,-99.99,,2013-08-07 06:43:00,
2013-08-07 02:52:00,79.0,-99.9,30.06,SE,130,9.0,10.0,-999,-99.99,,,-99.99,,2013-08-07 06:52:00,
2013-08-07 03:00:00,79.0,-99.9,30.06,SE,140,8.0,8.0,-999,-99.99,,,-99.99,,2013-08-07 07:00:00,
2013-08-07 03:44:00,79.0,-99.9,30.06,SE,140,8.0,8.0,-999,-99.99,,,-99.99,,2013-08-07 07:44:00,
2013-08-07 03:53:00,79.0,-99.9,30.06,SE,140,8.0,8.0,-999,-99.99,,,-99.99,,2013-08-07 07:53:00,
2013-08-07 04:00:00,79.0,-99.9,30.06,ESE,120,9.0,10.0,-999,-99.99,,,-99.99,,2013-08-07 08:00:00,
2013-08-07 04:32:00,79.0,-99.9,30.06,ESE,120,9.0,10.0,-999,-99.99,,,-99.99,,2013-08-07 08:32:00,
2013-08-07 04:44:00,79.0,-99.9,30.06,ESE,120,9.0,10.0,-999,-99.99,,,-99.99,,2013-08-07 08:44:00,
2013-08-07 04:53:00,79.0,-99.9,30.06,ESE,120,9.0,10.0,-999,-99.99,,,-99.99,,2013-08-07 08:53:00,
2013-08-07 05:00:00,79.0,-99.9,30.07,ESE,120,10.0,12.0,-999,-99.99,,,-99.99,,2013-08-07 09:00:00,
2013-08-07 05:43:00,79.0,-99.9,30.07,ESE,120,10.0,12.0,-999,-99.99,,,-99.99,,2013-08-07 09:43:00,
2013-08-07 05:54:00,79.0,-99.9,30.07,ESE,120,10.0,12.0,-999,-99.99,,,-99.99,,2013-08-07 09:54:00,
2013-08-07 06:00:00,79.0,-99.9,30.08,ESE,110,9.0,9.0,-999,-99.99,,,-99.99,,2013-08-07 10:00:00,
2013-08-07 06:32:00,79.0,-99.9,30.08,ESE,110,9.0,9.0,-999,-99.99,,,-99.99,,2013-08-07 10:32:00,
2013-08-07 06:43:00,79.0,-99.9,30.08,ESE,110,9.0,9.0,-999,-99.99,,,-99.99,,2013-08-07 10:43:00,
2013-08-07 06:52:00,79.0,-99.9,30.08,ESE,110,9.0,9.0,-999,-99.99,,,-99.99,,2013-08-07 10:52:00,
2013-08-07 07:00:00,79.0,-99.9,30.09,East,100,7.0,8.0,-999,-99.99,,,-99.99,,2013-08-07 11:00:00,
2013-08-07 07:32:00,79.0,-99.9,30.09,East,100,7.0,8.0,-999,-99.99,,,-99.99,,2013-08-07 11:32:00,
2013-08-07 07:43:00,79.0,-99.9,30.09,East,100,7.0,8.0,-999,-99.99,,,-99.99,,2013-08-07 11:43:00,
2013-08-07 07:53:00,79.0,-99.9,30.09,East,100,7.0,8.0,-999,-99.99,,,-99.99,,2013-08-07 11:53:00,
2013-08-07 08:00:00,80.0,-99.9,30.09,East,100,8.0,9.0,-999,-99.99,,,-99.99,,2013-08-07 12:00:00,
2013-08-07 08:33:00,80.0,-99.9,30.09,East,100,8.0,9.0,-999,-99.99,,,-99.99,,2013-08-07 12:33:00,
2013-08-07 08:43:00,80.0,-99.9,30.09,East,100,8.0,9.0,-999,-99.99,,,-99.99,,2013-08-07 12:43:00,
2013-08-07 08:53:00,80.0,-99.9,30.09,East,100,8.0,9.0,-999,-99.99,,,-99.99,,2013-08-07 12:53:00,
2013-08-07 09:00:00,80.0,-99.9,30.10,East,100,12.0,12.0,-999,-99.99,,,-99.99,,2013-08-07 13:00:00,
2013-08-07 09:32:00,80.0,-99.9,30.10,East,100,12.0,12.0,-999,-99.99,,,-99.99,,2013-08-07 13:32:00,
2013-08-07 09:44:00,80.0,-99.9,30.10,East,100,12.0,12.0,-999,-99.99,,,-99.99,,2013-08-07 13:44:00,
2013-08-07 09:53:00,80.0,-99.9,30.10,East,100,12.0,12.0,-999,-99.99,,,-99.99,,2013-08-07 13:53:00,
2013-08-07 10:00:00,80.0,-99.9,30.10,East,90,9.0,10.0,-999,-99.99,,,-99.99,,2013-08-07 14:00:00,
2013-08-07 10:33:00,80.0,-99.9,30.10,East,90,9.0,10.0,-999,-99.99,,,-99.99,,2013-08-07 14:33:00,
2013-08-07 10:43:00,80.0,-99.9,30.10,East,90,9.0,10.0,-999,-99.99,,,-99.99,,2013-08-07 14:43:00,
2013-08-07 10:52:00,80.0,-99.9,30.10,East,90,9.0,10.0,-999,-99.99,,,-99.99,,2013-08-07 14:52:00,
2013-08-07 11:00:00,80.0,-99.9,30.11,East,90,10.0,12.0,-999,-99.99,,,-99.99,,2013-08-07 15:00:00,
2013-08-07 11:44:00,80.0,-99.9,30.11,East,90,10.0,12.0,-999,-99.99,,,-99.99,,2013-08-07 15:44:00,
2013-08-07 11:53:00,80.0,-99.9,30.11,East,90,10.0,12.0,-999,-99.99,,,-99.99,,2013-08-07 15:53:00,
2013-08-07 12:00:00,80.0,-99.9,30.11,East,80,9.0,12.0,-999,-99.99,,,-99.99,,2013-08-07 16:00:00,
2013-08-07 12:43:00,80.0,-99.9,30.11,East,80,9.0,12.0,-999,-99.99,,,-99.99,,2013-08-07 16:43:00,
2013-08-07 12:53:00,80.0,-99.9,30.11,East,80,9.0,12.0,-999,-99.99,,,-99.99,,2013-08-07 16:53:00,
2013-08-07 13:00:00,79.0,-99.9,30.11,SE,140,6.0,7.0,-999,-99.99,,,-99.99,,2013-08-07 17:00:00,
2013-08-07 13:33:00,79.0,-99.9,30.11,SE,140,6.0,7.0,-999,-99.99,,,-99.99,,2013-08-07 17:33:00,
2013-08-07 13:43:00,79.0,-99.9,30.11,SE,140,6.0,7.0,-999,-99.99,,,-99.99,,2013-08-07 17:43:00,
2013-08-07 13:52:00,79.0,-99.9,30.11,SE,140,6.0,7.0,-999,-99.99,,,-99.99,,2013-08-07 17:52:00,
2013-08-07 14:00:00,80.0,-99.9,30.10,East,80,7.0,9.0,-999,-99.99,,,-99.99,,2013-08-07 18:00:00,
2013-08-07 14:32:00,80.0,-99.9,30.10,East,80,7.0,9.0,-999,-99.99,,,-99.99,,2013-08-07 18:32:00,
2013-08-07 14:43:00,80.0,-99.9,30.10,East,80,7.0,9.0,-999,-99.99,,,-99.99,,2013-08-07 18:43:00,
2013-08-07 14:52:00,80.0,-99.9,30.10,East,80,7.0,9.0,-999,-99.99,,,-99.99,,2013-08-07 18:52:00,
2013-08-07 15:00:00,80.0,-99.9,30.10,ESE,120,13.0,15.0,-999,-99.99,,,-99.99,,2013-08-07 19:00:00,
2013-08-07 15:32:00,80.0,-99.9,30.10,ESE,120,13.0,15.0,-999,-99.99,,,-99.99,,2013-08-07 19:32:00,
2013-08-07 15:44:00,80.0,-99.9,30.10,ESE,120,13.0,15.0,-999,-99.99,,,-99.99,,2013-08-07 19:44:00,
2013-08-07 15:53:00,80.0,-99.9,30.10,ESE,120,13.0,15.0,-999,-99.99,,,-99.99,,2013-08-07 19:53:00,
2013-08-07 16:00:00,80.0,-99.9,30.08,ESE,110,13.0,14.0,-999,-99.99,,,-99.99,,2013-08-07 20:00:00,
2013-08-07 16:33:00,80.0,-99.9,30.08,ESE,110,13.0,14.0,-999,-99.99,,,-99.99,,2013-08-07 20:33:00,
2013-08-07 16:43:00,80.0,-99.9,30.08,ESE,110,13.0,14.0,-999,-99.99,,,-99.99,,2013-08-07 20:43:00,
2013-08-07 16:52:00,80.0,-99.9,30.08,ESE,110,13.0,14.0,-999,-99.99,,,-99.99,,2013-08-07 20:52:00,
2013-08-07 17:00:00,80.0,-99.9,30.06,ESE,120,14.0,16.0,-999,-99.99,,,-99.99,,2013-08-07 21:00:00,
2013-08-07 17:32:00,80.0,-99.9,30.06,ESE,120,14.0,16.0,-999,-99.99,,,-99.99,,2013-08-07 21:32:00,
2013-08-07 17:43:00,80.0,-99.9,30.06,ESE,120,14.0,16.0,-999,-99.99,,,-99.99,,2013-08-07 21:43:00,
2013-08-07 17:52:00,80.0,-99.9,30.06,ESE,120,14.0,16.0,-999,-99.99,,,-99.99,,2013-08-07 21:52:00,
2013-08-07 18:00:00,80.0,-99.9,30.06,ESE,120,13.0,14.0,-999,-99.99,,,-99.99,,2013-08-07 22:00:00,
2013-08-07 18:32:00,80.0,-99.9,30.06,ESE,120,13.0,14.0,-999,-99.99,,,-99.99,,2013-08-07 22:32:00,
2013-08-07 18:43:00,80.0,-99.9,30.06,ESE,120,13.0,14.0,-999,-99.99,,,-99.99,,2013-08-07 22:43:00,
2013-08-07 18:52:00,80.0,-99.9,30.06,ESE,120,13.0,14.0,-999,-99.99,,,-99.99,,2013-08-07 22:52:00,
2013-08-07 19:00:00,80.0,-99.9,30.06,SE,130,13.0,14.0,-999,-99.99,,,-99.99,,2013-08-07 23:00:00,
2013-08-07 19:22:00,80.0,-99.9,30.06,SE,130,13.0,14.0,-999,-99.99,,,-99.99,,2013-08-07 23:22:00,
2013-08-07 19:32:00,80.0,-99.9,30.06,SE,130,13.0,14.0,-999,-99.99,,,-99.99,,2013-08-07 23:32:00,
2013-08-07 19:43:00,80.0,-99.9,30.06,SE,130,13.0,14.0,-999,-99.99,,,-99.99,,2013-08-07 23:43:00,
2013-08-07 19:52:00,80.0,-99.9,30.06,SE,130,13.0,14.0,-999,-99.99,,,-99.99,,2013-08-07 23:52:00,
2013-08-07 20:00:00,80.0,-99.9,30.06,ESE,120,12.0,13.0,-999,-99.99,,,-99.99,,2013-08-08 00:00:00,
2013-08-07 20:43:00,80.0,-99.9,30.06,ESE,120,12.0,13.0,-999,-99.99,,,-99.99,,2013-08-08 00:43:00,
2013-08-07 20:53:00,80.0,-99.9,30.06,ESE,120,12.0,13.0,-999,-99.99,,,-99.99,,2013-08-08 00:53:00,
2013-08-07 21:00:00,80.0,-99.9,30.07,ESE,120,10.0,12.0,-999,-99.99,,,-99.99,,2013-08-08 01:00:00,
2013-08-07 21:32:00,80.0,-99.9,30.07,ESE,120,10.0,12.0,-999,-99.99,,,-99.99,,2013-08-08 01:32:00,
2013-08-07 21:43:00,80.0,-99.9,30.07,ESE,120,10.0,12.0,-999,-99.99,,,-99.99,,2013-08-08 01:43:00,
2013-08-07 21:53:00,80.0,-99.9,30.07,ESE,120,10.0,12.0,-999,-99.99,,,-99.99,,2013-08-08 01:53:00,
2013-08-07 22:00:00,80.0,-99.9,30.08,SE,130,13.0,16.0,-999,-99.99,,,-99.99,,2013-08-08 02:00:00,
2013-08-07 22:32:00,80.0,-99.9,30.08,SE,130,13.0,16.0,-999,-99.99,,,-99.99,,2013-08-08 02:32:00,
2013-08-07 22:43:00,80.0,-99.9,30.08,SE,130,13.0,16.0,-999,-99.99,,,-99.99,,2013-08-08 02:43:00,
2013-08-07 22:53:00,80.0,-99.9,30.08,SE,130,13.0,16.0,-999,-99.99,,,-99.99,,2013-08-08 02:53:00,